Map Display - EGLL to EGCC
(last flight recorded 20-05-2019, 10:47 - Adrian Smith)

Aircraft Weights    Units : Maximums
Passengers :   228  
Cargo : kg 21,350 kg
Suggested Fuel Load : kg 34,260 kg
 
     
 
Dry Operating : 62,100 kg    
Total Payload : 0 kg 21,350 kg
 
Take Off : 69,538 kg 113,850 kg
 
Expected Landing : 66,388 kg 89,800 kg

Christopher Manlow,  B752 ,  G-BIKG,  .

Route Distance Previous
Flights
Average
Duration
Average
Fuel Flow
Average
Fuel Use
EGLL - Heathrow, London
EGCC - Manchester
131 nm 14 00:42 4,288 kg/h 3,150 kg

Current weather :-
2019/05/20 06:57
TAF EGLL 200551Z 2006/2112 32004KT 9999 SCT030
TEMPO 2006/2008 7000 PROB30
TEMPO 2006/2007 4000 BR PROB40
TEMPO 2012/2020 6000 SHRA PROB30 2104/2107 8000
2019/05/20 06:38
TAF
AMD EGCC 200631Z 2006/2112 29006KT 4000 BR BKN004
BECMG 2007/2010 9999 NSW FEW010 SCT030
TEMPO 2100/2106 3000 BR BKN004

Back to Virtual Airline